createdAt,value
2018-12-11T00:00:27.181Z,4.7
2018-12-11T00:01:27.085Z,4.65
2018-12-11T00:02:27.317Z,4.59
2018-12-11T00:03:27.299Z,4.58
2018-12-11T00:04:27.281Z,4.5
2018-12-11T00:05:27.002Z,4.52
2018-12-11T00:06:27.292Z,4.55
2018-12-11T00:07:27.216Z,4.47
2018-12-11T00:08:26.689Z,4.5
2018-12-11T00:09:27.186Z,4.43
2018-12-11T00:10:27.154Z,4.44
2018-12-11T00:11:26.872Z,4.43
2018-12-11T00:12:27.110Z,4.5
2018-12-11T00:13:26.573Z,4.52
2018-12-11T00:14:26.807Z,4.58
2018-12-11T00:15:26.793Z,4.52
2018-12-11T00:16:26.523Z,4.57
2018-12-11T00:17:26.997Z,4.58
2018-12-11T00:18:26.985Z,4.52
2018-12-11T00:19:26.702Z,4.59
2018-12-11T00:20:27.480Z,4.59
2018-12-11T00:21:26.908Z,4.47
2018-12-11T00:22:26.636Z,4.59
2018-12-11T00:23:26.875Z,4.61
2018-12-11T00:24:26.846Z,4.62
2018-12-11T00:25:26.316Z,4.61
2018-12-11T00:26:26.553Z,4.62
2018-12-11T00:27:26.523Z,4.69
2018-12-11T00:28:26.499Z,4.64
2018-12-11T00:29:26.734Z,4.65
2018-12-11T00:30:26.714Z,4.58
2018-12-11T00:31:26.437Z,4.59
2018-12-11T00:32:26.677Z,4.61
2018-12-11T00:33:26.392Z,4.62
2018-12-11T00:34:26.368Z,4.61
2018-12-11T00:35:26.641Z,4.57
2018-12-11T00:36:26.589Z,4.52
2018-12-11T00:37:26.584Z,4.5
2018-12-11T00:38:26.283Z,4.47
2018-12-11T00:39:26.521Z,4.43
2018-12-11T00:40:26.241Z,4.44
2018-12-11T00:41:26.478Z,4.43
2018-12-11T00:42:26.449Z,4.46
2018-12-11T00:43:26.430Z,4.4
2018-12-11T00:44:26.460Z,4.43
2018-12-11T00:45:26.127Z,4.42
2018-12-11T00:46:25.856Z,4.36
2018-12-11T00:47:26.114Z,4.37
2018-12-11T00:48:26.325Z,4.32
2018-12-11T00:49:26.044Z,4.29
2018-12-11T00:50:26.279Z,4.29
2018-12-11T00:51:26.259Z,4.26
2018-12-11T00:52:25.977Z,4.28
2018-12-11T00:53:25.710Z,4.22
2018-12-11T00:54:25.950Z,4.21
2018-12-11T00:55:26.174Z,4.19
2018-12-11T00:56:26.189Z,4.16
2018-12-11T00:57:25.635Z,4.16
2018-12-11T00:58:26.108Z,4.15
2018-12-11T00:59:26.079Z,4.1
2018-12-11T01:00:26.065Z,4.08
2018-12-11T01:01:26.036Z,4.12
2018-12-11T01:02:26.019Z,4.12
2018-12-11T01:03:25.991Z,4.01
2018-12-11T01:04:25.718Z,4.03
2018-12-11T01:05:25.700Z,4.04
2018-12-11T01:06:25.936Z,4.08
2018-12-11T01:07:25.902Z,4.07
2018-12-11T01:08:25.687Z,4.04
2018-12-11T01:09:25.618Z,4
2018-12-11T01:10:25.845Z,4
2018-12-11T01:11:25.574Z,4.01
2018-12-11T01:12:25.993Z,3.98
2018-12-11T01:13:25.512Z,3.98
2018-12-11T01:14:25.501Z,3.98
2018-12-11T01:15:25.744Z,3.98
2018-12-11T01:16:25.448Z,3.97
2018-12-11T01:17:25.682Z,4
2018-12-11T01:18:25.658Z,4
2018-12-11T01:19:25.649Z,3.9
2018-12-11T01:20:25.637Z,3.94
2018-12-11T01:21:25.598Z,3.97
2018-12-11T01:22:25.320Z,3.9
2018-12-11T01:23:25.565Z,3.89
2018-12-11T01:24:25.287Z,3.94
2018-12-11T01:25:25.507Z,3.97
2018-12-11T01:26:25.482Z,3.98
2018-12-11T01:27:25.459Z,3.94
2018-12-11T01:28:25.455Z,3.9
2018-12-11T01:29:25.171Z,3.92
2018-12-11T01:30:25.399Z,3.88
2018-12-11T01:31:25.134Z,3.86
2018-12-11T01:32:25.111Z,3.89
2018-12-11T01:33:25.095Z,3.83
2018-12-11T01:34:24.800Z,3.89
2018-12-11T01:35:25.231Z,3.86
2018-12-11T01:36:25.258Z,3.83
2018-12-11T01:37:25.049Z,3.86
2018-12-11T01:38:24.962Z,3.89
2018-12-11T01:39:24.938Z,3.85
2018-12-11T01:40:24.920Z,3.88
2018-12-11T01:41:24.898Z,3.86
2018-12-11T01:42:25.135Z,3.88
2018-12-11T01:43:24.596Z,3.94
2018-12-11T01:44:24.845Z,3.94
2018-12-11T01:45:25.079Z,3.98
2018-12-11T01:46:24.781Z,4.03
2018-12-11T01:47:24.760Z,4.01
2018-12-11T01:48:25.024Z,4.07
2018-12-11T01:49:24.466Z,4
2018-12-11T01:50:24.955Z,4
2018-12-11T01:51:24.671Z,4.03
2018-12-11T01:52:24.908Z,3.97
2018-12-11T01:53:24.624Z,4.06
2018-12-11T01:54:24.607Z,4.1
2018-12-11T01:55:24.833Z,4.07
2018-12-11T01:56:24.573Z,4
2018-12-11T01:57:24.817Z,4.01
2018-12-11T01:58:24.540Z,4.04
2018-12-11T01:59:24.493Z,4
2018-12-11T02:00:24.734Z,3.96
2018-12-11T02:01:24.704Z,4.01
2018-12-11T02:02:24.428Z,3.94
2018-12-11T02:03:24.154Z,3.94
2018-12-11T02:04:24.383Z,3.89
2018-12-11T02:05:24.614Z,3.9
2018-12-11T02:06:24.410Z,3.88
2018-12-11T02:07:24.319Z,3.89
2018-12-11T02:08:24.039Z,3.86
2018-12-11T02:09:24.537Z,3.89
2018-12-11T02:10:24.248Z,3.71
2018-12-11T02:11:24.482Z,3.86
2018-12-11T02:12:24.466Z,3.8
2018-12-11T02:13:23.953Z,3.75
2018-12-11T02:14:24.409Z,3.76
2018-12-11T02:15:23.888Z,3.79
2018-12-11T02:16:24.112Z,3.75
2018-12-11T02:17:24.099Z,3.76
2018-12-11T02:18:24.072Z,3.76
2018-12-11T02:19:24.307Z,3.75
2018-12-11T02:20:24.276Z,3.78
2018-12-11T02:21:24.309Z,3.65
2018-12-11T02:22:23.739Z,3.75
2018-12-11T02:23:24.212Z,3.75
2018-12-11T02:24:23.939Z,3.7
2018-12-11T02:25:23.934Z,3.64
2018-12-11T02:26:24.198Z,3.71
2018-12-11T02:27:24.131Z,3.76
2018-12-11T02:28:23.861Z,3.8
2018-12-11T02:29:24.089Z,3.78
2018-12-11T02:30:24.077Z,3.71
2018-12-11T02:31:23.544Z,3.71
2018-12-11T02:32:23.774Z,3.76
2018-12-11T02:33:23.744Z,3.79
2018-12-11T02:34:23.739Z,3.82
2018-12-11T02:35:24.000Z,3.82
2018-12-11T02:36:23.924Z,3.9
2018-12-11T02:37:23.643Z,3.9
2018-12-11T02:38:23.885Z,3.9
2018-12-11T02:39:23.603Z,3.96
2018-12-11T02:40:23.839Z,3.9
2018-12-11T02:41:23.563Z,3.98
2018-12-11T02:42:23.539Z,3.98
2018-12-11T02:43:23.518Z,4
2018-12-11T02:44:23.762Z,4
2018-12-11T02:45:23.500Z,3.98
2018-12-11T02:46:23.198Z,3.98
2018-12-11T02:47:23.481Z,4.12
2018-12-11T02:48:23.410Z,4.15
2018-12-11T02:49:23.379Z,4.01
2018-12-11T02:50:23.359Z,4
2018-12-11T02:51:23.079Z,4
2018-12-11T02:52:23.339Z,3.98
2018-12-11T02:53:23.294Z,3.98
2018-12-11T02:54:23.534Z,3.94
2018-12-11T02:55:23.011Z,4
2018-12-11T02:56:23.534Z,4
2018-12-11T02:57:23.225Z,3.97
2018-12-11T02:58:23.431Z,3.97
2018-12-11T02:59:23.173Z,3.94
2018-12-11T03:00:23.404Z,3.96
2018-12-11T03:01:23.368Z,3.9
2018-12-11T03:02:23.346Z,3.96
2018-12-11T03:03:22.855Z,3.97
2018-12-11T03:04:23.044Z,3.97
2018-12-11T03:05:23.277Z,3.94
2018-12-11T03:06:22.803Z,4
2018-12-11T03:07:22.997Z,4.06
2018-12-11T03:08:22.702Z,4.07
2018-12-11T03:09:23.189Z,4.12
2018-12-11T03:10:22.913Z,3.94
2018-12-11T03:11:23.198Z,4.12
2018-12-11T03:12:22.866Z,4.06
2018-12-11T03:13:23.123Z,4.06
2018-12-11T03:14:22.823Z,3.92
2018-12-11T03:15:22.828Z,4.08
2018-12-11T03:16:22.542Z,4.08
2018-12-11T03:17:23.033Z,4.08
2018-12-11T03:18:22.996Z,4.19
2018-12-11T03:19:22.715Z,4.15
2018-12-11T03:20:22.690Z,4.1
2018-12-11T03:21:22.665Z,4.08
2018-12-11T03:22:22.643Z,4.22
2018-12-11T03:23:22.882Z,4.25
2018-12-11T03:24:22.607Z,4.21
2018-12-11T03:25:22.828Z,4.14
2018-12-11T03:26:22.820Z,4.19
2018-12-11T03:27:22.293Z,4.1
2018-12-11T03:28:22.771Z,4.1
2018-12-11T03:29:22.753Z,4.14
2018-12-11T03:30:22.256Z,4.18
2018-12-11T03:31:22.572Z,4.19
2018-12-11T03:32:22.702Z,4.14
2018-12-11T03:33:22.665Z,4.18
2018-12-11T03:34:22.129Z,4.07
2018-12-11T03:35:22.841Z,4.15
2018-12-11T03:36:22.336Z,4.18
2018-12-11T03:37:22.568Z,4.14
2018-12-11T03:38:22.290Z,4.14
2018-12-11T03:39:22.533Z,4.04
2018-12-11T03:40:22.500Z,4.03
2018-12-11T03:41:22.220Z,4.07
2018-12-11T03:42:22.218Z,4.01
2018-12-11T03:43:22.184Z,4.01
2018-12-11T03:44:22.419Z,4.01
2018-12-11T03:45:22.399Z,3.9
2018-12-11T03:46:22.115Z,4
2018-12-11T03:47:21.855Z,3.9
2018-12-11T03:48:22.075Z,3.97
2018-12-11T03:49:22.302Z,3.9
2018-12-11T03:50:22.282Z,3.94
2018-12-11T03:51:23.118Z,3.86
2018-12-11T03:52:26.150Z,3.89
2018-12-11T03:53:21.956Z,3.9
2018-12-11T03:54:22.192Z,4
2018-12-11T03:55:22.176Z,3.94
2018-12-11T03:56:21.889Z,3.92
2018-12-11T03:57:22.123Z,3.88
2018-12-11T03:58:21.597Z,3.75
2018-12-11T03:59:22.074Z,3.83
2018-12-11T04:00:21.807Z,3.83
2018-12-11T04:01:22.036Z,3.8
2018-12-11T04:02:21.879Z,3.71
2018-12-11T04:03:21.748Z,3.76
2018-12-11T04:04:21.976Z,3.75
2018-12-11T04:05:21.693Z,3.79
2018-12-11T04:06:21.671Z,3.76
2018-12-11T04:07:21.932Z,3.65
2018-12-11T04:08:21.882Z,3.72
2018-12-11T04:09:21.860Z,3.75
2018-12-11T04:10:21.585Z,3.75
2018-12-11T04:11:21.805Z,3.67
2018-12-11T04:12:21.831Z,3.67
2018-12-11T04:13:21.781Z,3.72
2018-12-11T04:14:21.486Z,3.65
2018-12-11T04:15:21.730Z,3.67
2018-12-11T04:16:21.710Z,3.79
2018-12-11T04:17:21.421Z,3.76
2018-12-11T04:18:21.655Z,3.78
2018-12-11T04:19:21.383Z,3.68
2018-12-11T04:20:21.618Z,3.65
2018-12-11T04:21:21.086Z,3.71
2018-12-11T04:22:21.349Z,3.68
2018-12-11T04:23:21.566Z,3.71
2018-12-11T04:24:21.265Z,3.76
2018-12-11T04:25:21.503Z,3.72
2018-12-11T04:26:20.972Z,3.82
2018-12-11T04:27:21.235Z,3.83
2018-12-11T04:28:21.429Z,3.75
2018-12-11T04:29:21.157Z,3.79
2018-12-11T04:30:21.127Z,3.75
2018-12-11T04:31:21.111Z,3.78
2018-12-11T04:32:21.120Z,3.76
2018-12-11T04:33:21.062Z,3.76
2018-12-11T04:34:21.037Z,3.75
2018-12-11T04:35:21.281Z,3.78
2018-12-11T04:36:21.260Z,3.75
2018-12-11T04:37:20.977Z,3.85
2018-12-11T04:38:21.210Z,3.76
2018-12-11T04:39:20.932Z,3.76
2018-12-11T04:40:21.159Z,3.76
2018-12-11T04:41:20.635Z,3.76
2018-12-11T04:42:21.117Z,3.75
2018-12-11T04:43:20.849Z,3.78
2018-12-11T04:44:20.848Z,3.8
2018-12-11T04:45:20.826Z,3.75
2018-12-11T04:46:21.029Z,3.76
2018-12-11T04:47:21.005Z,3.76
2018-12-11T04:48:20.982Z,3.72
2018-12-11T04:49:20.960Z,3.8
2018-12-11T04:50:20.431Z,3.8
2018-12-11T04:51:20.401Z,3.79
2018-12-11T04:52:20.694Z,3.72
2018-12-11T04:53:20.868Z,3.75
2018-12-11T04:54:20.598Z,3.79
2018-12-11T04:55:20.828Z,3.72
2018-12-11T04:56:20.798Z,3.71
2018-12-11T04:57:20.830Z,3.65
2018-12-11T04:58:20.767Z,3.78
2018-12-11T04:59:20.475Z,3.76
2018-12-11T05:00:20.201Z,3.67
2018-12-11T05:01:20.428Z,3.67
2018-12-11T05:02:20.667Z,3.64
2018-12-11T05:03:20.173Z,3.7
2018-12-11T05:04:20.372Z,3.65
2018-12-11T05:05:20.355Z,3.72
2018-12-11T05:06:20.606Z,3.58
2018-12-11T05:07:20.328Z,3.58
2018-12-11T05:08:20.574Z,3.6
2018-12-11T05:09:20.000Z,3.64
2018-12-11T05:10:20.232Z,3.58
2018-12-11T05:11:19.996Z,3.53
2018-12-11T05:12:20.214Z,3.52
2018-12-11T05:13:20.424Z,3.6
2018-12-11T05:14:20.136Z,3.58
2018-12-11T05:15:20.118Z,3.57
2018-12-11T05:16:20.096Z,3.58
2018-12-11T05:17:20.339Z,3.57
2018-12-11T05:18:21.269Z,3.61
2018-12-11T05:19:20.036Z,3.58
2018-12-11T05:20:20.212Z,3.58
2018-12-11T05:21:20.234Z,3.58
2018-12-11T05:22:20.009Z,3.52
2018-12-11T05:23:19.987Z,3.58
2018-12-11T05:24:19.914Z,3.58
2018-12-11T05:25:19.898Z,3.6
2018-12-11T05:26:20.121Z,3.57
2018-12-11T05:27:19.855Z,3.57
2018-12-11T05:28:19.907Z,3.65
2018-12-11T05:29:19.802Z,3.65
2018-12-11T05:30:20.041Z,3.64
2018-12-11T05:31:20.009Z,3.61
2018-12-11T05:32:19.987Z,3.61
2018-12-11T05:33:19.712Z,3.58
2018-12-11T05:34:19.944Z,3.64
2018-12-11T05:35:20.276Z,3.6
2018-12-11T05:36:19.903Z,3.65
2018-12-11T05:37:19.875Z,3.58
2018-12-11T05:38:19.960Z,3.65
2018-12-11T05:39:19.592Z,3.64
2018-12-11T05:40:19.817Z,3.67
2018-12-11T05:41:19.311Z,3.71
2018-12-11T05:42:19.532Z,3.76
2018-12-11T05:43:19.770Z,3.75
2018-12-11T05:44:19.223Z,3.76
2018-12-11T05:45:19.708Z,3.72
2018-12-11T05:46:19.422Z,3.76
2018-12-11T05:47:19.660Z,3.82
2018-12-11T05:48:19.626Z,3.8
2018-12-11T05:49:19.399Z,3.89
2018-12-11T05:50:19.324Z,3.85
2018-12-11T05:51:19.311Z,3.94
2018-12-11T05:52:19.298Z,3.85
2018-12-11T05:53:19.517Z,3.94
2018-12-11T05:54:19.498Z,3.9
2018-12-11T05:55:19.471Z,3.88
2018-12-11T05:56:19.449Z,3.86
2018-12-11T05:57:19.427Z,3.86
2018-12-11T05:58:19.407Z,3.83
2018-12-11T05:59:19.126Z,3.92
2018-12-11T06:00:19.135Z,3.96
2018-12-11T06:01:19.084Z,3.89
2018-12-11T06:02:18.807Z,3.9
2018-12-11T06:03:19.296Z,3.89
2018-12-11T06:04:19.031Z,3.9
2018-12-11T06:05:19.006Z,3.88
2018-12-11T06:06:18.988Z,3.89
2018-12-11T06:07:18.989Z,3.9
2018-12-11T06:08:18.932Z,3.89
2018-12-11T06:09:19.165Z,3.86
2018-12-11T06:10:18.888Z,3.94
2018-12-11T06:11:18.880Z,3.85
2018-12-11T06:12:18.586Z,3.86
2018-12-11T06:13:18.818Z,3.88
2018-12-11T06:14:18.804Z,3.76
2018-12-11T06:15:19.026Z,3.76
2018-12-11T06:16:19.005Z,3.78
2018-12-11T06:17:18.987Z,3.7
2018-12-11T06:18:18.966Z,3.71
2018-12-11T06:19:18.935Z,3.62
2018-12-11T06:20:18.666Z,3.62
2018-12-11T06:21:18.923Z,3.65
2018-12-11T06:22:18.916Z,3.65
2018-12-11T06:23:18.857Z,3.57
2018-12-11T06:24:18.570Z,3.68
2018-12-11T06:25:18.812Z,3.61
2018-12-11T06:26:18.527Z,3.61
2018-12-11T06:27:18.763Z,3.58
2018-12-11T06:28:18.808Z,3.57
2018-12-11T06:29:18.708Z,3.57
2018-12-11T06:30:18.444Z,3.6
2018-12-11T06:31:18.677Z,3.58
2018-12-11T06:32:18.389Z,3.58
2018-12-11T06:33:18.365Z,3.6
2018-12-11T06:34:18.394Z,3.6
2018-12-11T06:35:18.574Z,3.57
2018-12-11T06:36:18.557Z,3.47
2018-12-11T06:37:18.538Z,3.52
2018-12-11T06:38:18.282Z,3.52
2018-12-11T06:39:18.502Z,3.47
2018-12-11T06:40:18.226Z,3.42
2018-12-11T06:41:17.930Z,3.52
2018-12-11T06:42:18.419Z,3.44
2018-12-11T06:43:18.398Z,3.46
2018-12-11T06:44:18.114Z,3.46
2018-12-11T06:45:18.364Z,3.46
2018-12-11T06:46:18.328Z,3.47
2018-12-11T06:47:17.800Z,3.5
2018-12-11T06:48:18.288Z,3.47
2018-12-11T06:49:18.001Z,3.44
2018-12-11T06:50:17.984Z,3.46
2018-12-11T06:51:17.961Z,3.42
2018-12-11T06:52:17.944Z,3.43
2018-12-11T06:53:17.922Z,3.39
2018-12-11T06:54:17.889Z,3.31
2018-12-11T06:55:17.903Z,3.36
2018-12-11T06:56:18.105Z,3.42
2018-12-11T06:57:17.831Z,3.46
2018-12-11T06:58:17.817Z,3.53
2018-12-11T06:59:17.883Z,3.49
2018-12-11T07:00:17.759Z,3.52
2018-12-11T07:01:17.738Z,3.49
2018-12-11T07:02:17.724Z,3.5
2018-12-11T07:03:17.953Z,3.46
2018-12-11T07:04:17.674Z,3.47
2018-12-11T07:05:19.134Z,3.49
2018-12-11T07:06:17.372Z,3.47
2018-12-11T07:07:17.596Z,3.5
2018-12-11T07:08:17.639Z,3.47
2018-12-11T07:09:17.869Z,3.42
2018-12-11T07:10:17.803Z,3.39
2018-12-11T07:11:17.765Z,3.43
2018-12-11T07:12:17.743Z,3.44
2018-12-11T07:13:17.724Z,3.34
2018-12-11T07:14:17.230Z,3.43
2018-12-11T07:15:17.419Z,3.4
2018-12-11T07:16:17.140Z,3.4
2018-12-11T07:17:17.663Z,3.42
2018-12-11T07:18:17.347Z,3.43
2018-12-11T07:19:17.336Z,3.52
2018-12-11T07:20:17.304Z,3.57
2018-12-11T07:21:17.315Z,3.52
2018-12-11T07:22:17.515Z,3.54
2018-12-11T07:23:17.239Z,3.6
2018-12-11T07:24:17.215Z,3.57
2018-12-11T07:25:17.449Z,3.61
2018-12-11T07:26:17.436Z,3.62
2018-12-11T07:27:16.927Z,3.68
2018-12-11T07:28:17.380Z,3.64
2018-12-11T07:29:17.108Z,3.64
2018-12-11T07:30:17.337Z,3.61
2018-12-11T07:31:17.314Z,3.62
2018-12-11T07:32:17.035Z,3.75
2018-12-11T07:33:17.265Z,3.76
2018-12-11T07:34:17.290Z,3.68
2018-12-11T07:35:16.969Z,3.78
2018-12-11T07:36:16.951Z,3.67
2018-12-11T07:37:17.181Z,3.78
2018-12-11T07:38:16.902Z,3.75
2018-12-11T07:39:16.883Z,3.72
2018-12-11T07:40:17.109Z,3.75
2018-12-11T07:41:17.096Z,3.8
2018-12-11T07:42:16.806Z,3.86
2018-12-11T07:43:17.046Z,3.85
2018-12-11T07:44:16.983Z,3.88
2018-12-11T07:45:16.996Z,3.86
2018-12-11T07:46:16.975Z,3.85
2018-12-11T07:47:16.698Z,3.8
2018-12-11T07:48:16.932Z,3.83
2018-12-11T07:49:16.915Z,3.88
2018-12-11T07:50:16.658Z,3.88
2018-12-11T07:51:16.618Z,3.89
2018-12-11T07:52:16.843Z,3.89
2018-12-11T07:53:16.571Z,3.89
2018-12-11T07:54:16.801Z,3.92
2018-12-11T07:55:16.576Z,3.94
2018-12-11T07:56:16.246Z,3.94
2018-12-11T07:57:16.479Z,3.9
2018-12-11T07:58:16.450Z,3.89
2018-12-11T07:59:16.181Z,3.9
2018-12-11T08:00:16.667Z,3.86
2018-12-11T08:01:16.652Z,3.97
2018-12-11T08:02:16.364Z,3.97
2018-12-11T08:03:16.362Z,3.98
2018-12-11T08:04:16.329Z,3.88
2018-12-11T08:05:16.321Z,3.9
2018-12-11T08:06:16.364Z,3.86
2018-12-11T08:07:16.503Z,3.94
2018-12-11T08:08:15.977Z,3.9
2018-12-11T08:09:16.217Z,3.89
2018-12-11T08:10:16.444Z,3.85
2018-12-11T08:11:16.417Z,3.88
2018-12-11T08:12:15.888Z,3.86
2018-12-11T08:13:16.148Z,3.78
2018-12-11T08:14:15.850Z,3.86
2018-12-11T08:15:16.081Z,3.78
2018-12-11T08:16:16.321Z,3.76
2018-12-11T08:17:16.029Z,3.78
2018-12-11T08:18:16.261Z,3.83
2018-12-11T08:19:16.242Z,3.8
2018-12-11T08:20:16.217Z,3.88
2018-12-11T08:21:16.499Z,3.89
2018-12-11T08:22:16.182Z,3.79
2018-12-11T08:23:16.158Z,3.85
2018-12-11T08:24:15.883Z,3.83
2018-12-11T08:25:15.855Z,3.83
2018-12-11T08:26:15.836Z,3.83
2018-12-11T08:27:16.099Z,3.85
2018-12-11T08:28:15.788Z,3.85
2018-12-11T08:29:15.508Z,3.86
2018-12-11T08:30:15.742Z,3.94
2018-12-11T08:31:16.054Z,3.88
2018-12-11T08:32:15.952Z,3.9
2018-12-11T08:33:15.439Z,3.92
2018-12-11T08:34:15.922Z,3.88
2018-12-11T08:35:15.656Z,3.88
2018-12-11T08:36:15.608Z,3.96
2018-12-11T08:37:15.335Z,3.88
2018-12-11T08:38:15.836Z,3.96
2018-12-11T08:39:15.816Z,3.89
2018-12-11T08:40:15.819Z,3.96
2018-12-11T08:41:15.498Z,3.94
2018-12-11T08:42:15.231Z,4
2018-12-11T08:43:15.453Z,3.98
2018-12-11T08:44:15.432Z,3.98
2018-12-11T08:45:15.410Z,4.04
2018-12-11T08:46:15.393Z,3.98
2018-12-11T08:47:15.111Z,4.03
2018-12-11T08:48:15.611Z,4.04
2018-12-11T08:49:15.587Z,4.03
2018-12-11T08:50:15.566Z,4.08
2018-12-11T08:51:15.539Z,4.07
2018-12-11T08:52:15.531Z,4.04
2018-12-11T08:53:15.257Z,4.06
2018-12-11T08:54:15.492Z,4.06
2018-12-11T08:55:14.968Z,4.07
2018-12-11T08:56:15.430Z,4.19
2018-12-11T08:57:15.417Z,4.1
2018-12-11T08:58:15.126Z,4.22
2018-12-11T08:59:15.358Z,4.21
2018-12-11T09:00:15.399Z,4.25
2018-12-11T09:01:15.072Z,4.26
2018-12-11T09:02:15.039Z,4.28
2018-12-11T09:03:15.273Z,4.37
2018-12-11T09:04:15.272Z,4.4
2018-12-11T09:05:15.229Z,4.42
2018-12-11T09:06:14.722Z,4.52
2018-12-11T09:07:14.679Z,4.52
2018-12-11T09:08:15.173Z,4.57
2018-12-11T09:09:15.142Z,4.67
2018-12-11T09:10:16.195Z,4.69
2018-12-11T09:11:14.843Z,4.7
2018-12-11T09:12:15.082Z,4.67
2018-12-11T09:13:15.060Z,4.69
2018-12-11T09:14:14.780Z,4.59
2018-12-11T09:15:14.508Z,4.65
2018-12-11T09:16:14.772Z,4.64
2018-12-11T09:17:15.455Z,4.69
2018-12-11T09:18:14.697Z,4.62
2018-12-11T09:19:14.432Z,4.75
2018-12-11T09:20:14.397Z,4.75
2018-12-11T09:21:15.042Z,4.64
2018-12-11T09:22:14.619Z,4.65
2018-12-11T09:23:14.844Z,4.72
2018-12-11T09:24:14.578Z,4.73
2018-12-11T09:25:14.542Z,4.62
2018-12-11T09:26:14.536Z,4.65
2018-12-11T09:27:14.765Z,4.67
2018-12-11T09:28:16.122Z,4.67
2018-12-11T09:29:14.716Z,4.59
2018-12-11T09:30:14.436Z,4.64
2018-12-11T09:31:14.680Z,4.7
2018-12-11T09:32:14.647Z,4.73
2018-12-11T09:33:14.131Z,4.67
2018-12-11T09:34:14.607Z,4.79
2018-12-11T09:35:14.590Z,4.83
2018-12-11T09:36:14.768Z,4.77
2018-12-11T09:37:14.550Z,4.89
2018-12-11T09:38:14.017Z,4.92
2018-12-11T09:39:14.501Z,4.95
2018-12-11T09:40:14.507Z,5.02
2018-12-11T09:41:14.477Z,4.99
2018-12-11T09:42:14.439Z,5.04
2018-12-11T09:43:14.157Z,5.07
2018-12-11T09:44:14.142Z,5.04
2018-12-11T09:45:14.118Z,5.07
2018-12-11T09:46:14.352Z,5.12
2018-12-11T09:47:14.350Z,5.12
2018-12-11T09:48:14.055Z,5.14
2018-12-11T09:49:14.043Z,5.13
2018-12-11T09:50:14.290Z,5.17
2018-12-11T09:51:20.280Z,5.14
2018-12-11T09:52:14.226Z,5.09
2018-12-11T09:53:13.946Z,5.16
2018-12-11T09:54:13.929Z,5.14
2018-12-11T09:55:14.178Z,5.37
2018-12-11T09:56:13.902Z,5.32
2018-12-11T09:57:13.916Z,5.27
2018-12-11T09:58:13.856Z,5.16
2018-12-11T09:59:14.092Z,5.43
2018-12-11T10:00:13.807Z,5.86
2018-12-11T10:01:13.787Z,6.32
2018-12-11T10:02:14.019Z,6.65
2018-12-11T10:03:13.998Z,6.91
2018-12-11T10:04:13.735Z,7.19
2018-12-11T10:05:13.702Z,7.34
2018-12-11T10:06:13.933Z,7.62
2018-12-11T10:07:13.671Z,7.81
2018-12-11T10:08:13.896Z,8.18
2018-12-11T10:09:13.876Z,8.53
2018-12-11T10:10:13.857Z,8.48
2018-12-11T10:11:13.839Z,8.68
2018-12-11T10:12:13.560Z,8.45
2018-12-11T10:13:13.296Z,8.48
2018-12-11T10:14:13.534Z,8.63
2018-12-11T10:15:13.579Z,8.57
2018-12-11T10:16:13.516Z,8.76
2018-12-11T10:17:13.928Z,8.78
2018-12-11T10:18:13.707Z,8.83
2018-12-11T10:19:13.685Z,8.86
2018-12-11T10:20:13.423Z,8.91
2018-12-11T10:21:13.653Z,8.81
2018-12-11T10:22:13.425Z,8.83
2018-12-11T10:23:13.622Z,8.86
2018-12-11T10:24:13.344Z,8.78
2018-12-11T10:25:13.597Z,8.73
2018-12-11T10:26:13.567Z,8.57
2018-12-11T10:27:13.298Z,8.6
2018-12-11T10:28:13.537Z,8.6
2018-12-11T10:29:13.259Z,8.32
2018-12-11T10:30:13.850Z,8.25
2018-12-11T10:31:13.221Z,8.1
2018-12-11T10:32:13.517Z,8.03
2018-12-11T10:33:13.186Z,7.82
2018-12-11T10:34:13.189Z,7.74
2018-12-11T10:35:13.409Z,7.78
2018-12-11T10:36:13.400Z,7.63
2018-12-11T10:37:13.140Z,7.69
2018-12-11T10:38:13.397Z,7.58
2018-12-11T10:39:13.359Z,7.58
2018-12-11T10:40:13.076Z,7.4
2018-12-11T10:41:13.057Z,7.44
2018-12-11T10:42:12.778Z,7.52
2018-12-11T10:43:13.268Z,7.55
2018-12-11T10:44:13.268Z,7.53
2018-12-11T10:45:12.782Z,7.44
2018-12-11T10:46:12.975Z,7.4
2018-12-11T10:47:13.203Z,7.38
2018-12-11T10:48:13.201Z,7.38
2018-12-11T10:49:13.178Z,7.44
2018-12-11T10:50:13.145Z,7.47
2018-12-11T10:51:12.618Z,7.53
2018-12-11T10:52:13.126Z,7.56
2018-12-11T10:53:13.099Z,7.56
2018-12-11T10:54:12.861Z,7.55
2018-12-11T10:55:12.807Z,7.6
2018-12-11T10:56:13.061Z,7.71
2018-12-11T10:57:13.038Z,7.81
2018-12-11T10:58:13.004Z,7.71
2018-12-11T10:59:12.745Z,7.79
2018-12-11T11:00:13.004Z,7.75
2018-12-11T11:01:12.952Z,7.67
2018-12-11T11:02:12.940Z,7.6
2018-12-11T11:03:12.433Z,7.62
2018-12-11T11:04:12.896Z,7.56
2018-12-11T11:05:12.629Z,7.63
2018-12-11T11:06:12.869Z,7.6
2018-12-11T11:07:12.879Z,7.66
2018-12-11T11:08:12.822Z,7.69
2018-12-11T11:09:12.564Z,7.62
2018-12-11T11:10:12.625Z,7.71
2018-12-11T11:11:12.544Z,7.79
2018-12-11T11:12:12.515Z,7.81
2018-12-11T11:13:12.751Z,7.78
2018-12-11T11:14:12.764Z,7.71
2018-12-11T11:15:12.235Z,7.69
2018-12-11T11:16:12.717Z,7.63
2018-12-11T11:17:12.424Z,7.67
2018-12-11T11:18:12.295Z,7.55
2018-12-11T11:19:12.385Z,7.58
2018-12-11T11:20:12.623Z,7.52
2018-12-11T11:21:12.601Z,7.35
2018-12-11T11:22:12.587Z,7.31
2018-12-11T11:23:12.565Z,7.27
2018-12-11T11:24:12.549Z,7.23
2018-12-11T11:25:12.271Z,7.16
2018-12-11T11:26:12.510Z,7.16
2018-12-11T11:27:12.493Z,7.16
2018-12-11T11:28:11.979Z,7.15
2018-12-11T11:29:12.459Z,7.29
2018-12-11T11:30:12.187Z,7.31
2018-12-11T11:31:12.200Z,7.34
2018-12-11T11:32:12.413Z,7.53
2018-12-11T11:33:12.395Z,7.72
2018-12-11T11:34:12.119Z,7.77
2018-12-11T11:35:12.101Z,7.85
2018-12-11T11:36:12.287Z,8
2018-12-11T11:37:12.071Z,8.04
2018-12-11T11:38:12.153Z,8.03
2018-12-11T11:39:12.284Z,8.03
2018-12-11T11:40:12.259Z,8.12
2018-12-11T11:41:11.994Z,8.11
2018-12-11T11:42:12.231Z,8.25
2018-12-11T11:43:11.700Z,8.25
2018-12-11T11:44:12.190Z,8.28
2018-12-11T11:45:11.953Z,8.08
2018-12-11T11:46:12.155Z,8
2018-12-11T11:47:11.883Z,8.11
2018-12-11T11:48:12.975Z,8.11
2018-12-11T11:49:11.849Z,8.08
2018-12-11T11:50:11.837Z,8.1
2018-12-11T11:51:11.822Z,8.1
2018-12-11T11:52:11.801Z,8.03
2018-12-11T11:53:12.056Z,7.97
2018-12-11T11:54:12.023Z,7.87
2018-12-11T11:55:11.750Z,7.94
2018-12-11T11:56:11.744Z,7.79
2018-12-11T11:57:11.727Z,7.89
2018-12-11T11:58:11.712Z,7.89
2018-12-11T11:59:11.934Z,7.89
2018-12-11T12:00:11.674Z,7.85
2018-12-11T12:01:11.646Z,7.87
2018-12-11T12:02:11.625Z,7.82
2018-12-11T12:03:11.880Z,7.84
2018-12-11T12:04:11.855Z,7.92
2018-12-11T12:05:11.585Z,7.96
2018-12-11T12:06:11.819Z,7.9
2018-12-11T12:07:11.549Z,8
2018-12-11T12:08:11.272Z,8.04
2018-12-11T12:09:11.261Z,8.11
2018-12-11T12:10:11.751Z,8.18
2018-12-11T12:11:11.469Z,8.15
2018-12-11T12:12:11.208Z,8.21
2018-12-11T12:13:11.442Z,8.14
2018-12-11T12:14:11.428Z,8.2
2018-12-11T12:15:11.665Z,8.08
2018-12-11T12:16:11.654Z,8.14
2018-12-11T12:17:11.658Z,8.14
2018-12-11T12:18:11.117Z,8.1
2018-12-11T12:19:11.599Z,8.2
2018-12-11T12:20:11.318Z,8.4
2018-12-11T12:21:11.553Z,8.78
2018-12-11T12:22:11.542Z,8.86
2018-12-11T12:23:11.265Z,8.93
2018-12-11T12:24:11.505Z,9.24
2018-12-11T12:25:11.236Z,9.34
2018-12-11T12:26:11.220Z,9.52
2018-12-11T12:27:11.479Z,9.71
2018-12-11T12:28:10.940Z,9.7
2018-12-11T12:29:11.423Z,9.63
2018-12-11T12:30:11.157Z,9.48
2018-12-11T12:31:11.136Z,9.39
2018-12-11T12:32:11.124Z,9.18
2018-12-11T12:33:11.136Z,8.97
2018-12-11T12:34:11.114Z,8.84
2018-12-11T12:35:10.842Z,8.69
2018-12-11T12:36:11.067Z,8.54
2018-12-11T12:37:11.304Z,8.53
2018-12-11T12:38:11.031Z,8.37
2018-12-11T12:39:11.317Z,8.36
2018-12-11T12:40:10.743Z,8.29
2018-12-11T12:41:11.007Z,8.32
2018-12-11T12:42:10.967Z,8.28
2018-12-11T12:43:11.206Z,8.3
2018-12-11T12:44:10.939Z,8.25
2018-12-11T12:45:11.172Z,8.26
2018-12-11T12:46:10.919Z,8.22
2018-12-11T12:47:10.907Z,8.26
2018-12-11T12:48:10.877Z,8.33
2018-12-11T12:49:11.111Z,8.55
2018-12-11T12:50:11.102Z,8.72
2018-12-11T12:51:10.822Z,9.04
2018-12-11T12:52:11.059Z,9.2
2018-12-11T12:53:10.789Z,9.56
2018-12-11T12:54:10.827Z,9.79
2018-12-11T12:55:10.756Z,10.21
2018-12-11T12:56:11.027Z,10.3
2018-12-11T12:57:10.992Z,10.46
2018-12-11T12:58:10.962Z,10.4
2018-12-11T12:59:10.694Z,10.58
2018-12-11T13:00:10.678Z,10.46
2018-12-11T13:01:10.920Z,10.71
2018-12-11T13:02:10.664Z,10.52
2018-12-11T13:03:10.654Z,10.18
2018-12-11T13:04:10.893Z,9.96
2018-12-11T13:05:10.863Z,9.75
2018-12-11T13:06:10.865Z,9.6
2018-12-11T13:07:10.587Z,9.53
2018-12-11T13:08:10.568Z,9.45
2018-12-11T13:09:10.300Z,9.3
2018-12-11T13:10:10.799Z,9.1
2018-12-11T13:11:10.782Z,8.86
2018-12-11T13:12:10.526Z,8.73
2018-12-11T13:13:11.904Z,8.55
2018-12-11T13:14:10.735Z,8.4
2018-12-11T13:15:12.165Z,8.37
2018-12-11T13:16:10.720Z,8.35
2018-12-11T13:17:10.491Z,8.29
2018-12-11T13:18:10.686Z,8.18
2018-12-11T13:19:10.408Z,8.14
2018-12-11T13:20:10.398Z,8.1
2018-12-11T13:21:10.378Z,8.02
2018-12-11T13:22:10.616Z,8.02
2018-12-11T13:23:10.603Z,8.04